sensor_id;sensor_type;location;lat;lon;timestamp;pressure;altitude;pressure_sealevel;temperature;humidity
81997;BME280;71500;50.806;8.774;2024-01-27T00:01:39;101384.15;;;5.38;65.02
81997;BME280;71500;50.806;8.774;2024-01-27T00:04:10;101386.08;;;5.34;65.21
81997;BME280;71500;50.806;8.774;2024-01-27T00:06:41;101389.37;;;5.31;65.28
81997;BME280;71500;50.806;8.774;2024-01-27T00:09:13;101387.19;;;5.27;65.58
81997;BME280;71500;50.806;8.774;2024-01-27T00:11:44;101390.61;;;5.26;65.55
81997;BME280;71500;50.806;8.774;2024-01-27T00:14:15;101392.14;;;5.23;65.48
81997;BME280;71500;50.806;8.774;2024-01-27T00:16:47;101396.00;;;5.19;65.69
81997;BME280;71500;50.806;8.774;2024-01-27T00:19:18;101394.70;;;5.17;65.68
81997;BME280;71500;50.806;8.774;2024-01-27T00:21:50;101400.77;;;5.15;66.27
81997;BME280;71500;50.806;8.774;2024-01-27T00:24:21;101405.13;;;5.12;66.31
81997;BME280;71500;50.806;8.774;2024-01-27T00:26:52;101399.67;;;5.07;66.38
81997;BME280;71500;50.806;8.774;2024-01-27T00:29:24;101403.15;;;5.08;66.58
81997;BME280;71500;50.806;8.774;2024-01-27T00:31:55;101398.91;;;5.09;66.71
81997;BME280;71500;50.806;8.774;2024-01-27T00:34:27;101401.84;;;5.10;66.52
81997;BME280;71500;50.806;8.774;2024-01-27T00:36:58;101401.75;;;5.12;66.75
81997;BME280;71500;50.806;8.774;2024-01-27T00:39:29;101405.03;;;5.14;66.55
81997;BME280;71500;50.806;8.774;2024-01-27T00:42:02;101408.98;;;5.16;66.61
81997;BME280;71500;50.806;8.774;2024-01-27T00:44:34;101410.85;;;5.18;66.52
81997;BME280;71500;50.806;8.774;2024-01-27T00:47:05;101409.38;;;5.19;66.56
81997;BME280;71500;50.806;8.774;2024-01-27T00:49:37;101406.00;;;5.20;66.54
81997;BME280;71500;50.806;8.774;2024-01-27T00:52:08;101405.29;;;5.20;66.37
81997;BME280;71500;50.806;8.774;2024-01-27T00:54:40;101411.14;;;5.19;66.60
81997;BME280;71500;50.806;8.774;2024-01-27T00:57:11;101412.95;;;5.18;66.39
81997;BME280;71500;50.806;8.774;2024-01-27T00:59:42;101414.29;;;5.16;66.29
81997;BME280;71500;50.806;8.774;2024-01-27T01:02:14;101414.98;;;5.07;66.31
81997;BME280;71500;50.806;8.774;2024-01-27T01:04:45;101417.85;;;4.98;66.57
81997;BME280;71500;50.806;8.774;2024-01-27T01:07:18;101418.23;;;4.88;66.93
81997;BME280;71500;50.806;8.774;2024-01-27T01:09:49;101414.30;;;4.81;67.28
81997;BME280;71500;50.806;8.774;2024-01-27T01:12:20;101419.09;;;4.75;67.55
81997;BME280;71500;50.806;8.774;2024-01-27T01:14:52;101421.80;;;4.69;67.54
81997;BME280;71500;50.806;8.774;2024-01-27T01:17:23;101420.88;;;4.61;67.78
81997;BME280;71500;50.806;8.774;2024-01-27T01:19:55;101420.75;;;4.55;67.95
81997;BME280;71500;50.806;8.774;2024-01-27T01:22:26;101438.16;;;4.51;68.05
81997;BME280;71500;50.806;8.774;2024-01-27T01:24:58;101441.90;;;4.45;68.11
81997;BME280;71500;50.806;8.774;2024-01-27T01:27:29;101440.54;;;4.40;68.33
81997;BME280;71500;50.806;8.774;2024-01-27T01:30:01;101440.92;;;4.34;68.34
81997;BME280;71500;50.806;8.774;2024-01-27T01:32:32;101439.77;;;4.27;68.62
81997;BME280;71500;50.806;8.774;2024-01-27T01:35:05;101451.52;;;4.23;68.68
81997;BME280;71500;50.806;8.774;2024-01-27T01:37:36;101455.39;;;4.18;68.77
81997;BME280;71500;50.806;8.774;2024-01-27T01:40:10;101457.20;;;4.12;68.94
81997;BME280;71500;50.806;8.774;2024-01-27T01:42:42;101459.64;;;4.08;69.04
81997;BME280;71500;50.806;8.774;2024-01-27T01:45:14;101465.61;;;4.03;69.16
81997;BME280;71500;50.806;8.774;2024-01-27T01:47:45;101474.55;;;4.03;69.13
81997;BME280;71500;50.806;8.774;2024-01-27T01:50:17;101480.68;;;4.04;69.19
81997;BME280;71500;50.806;8.774;2024-01-27T01:52:49;101477.89;;;4.03;69.14
81997;BME280;71500;50.806;8.774;2024-01-27T01:55:23;101473.56;;;4.02;69.24
81997;BME280;71500;50.806;8.774;2024-01-27T01:57:54;101478.86;;;4.06;69.23
81997;BME280;71500;50.806;8.774;2024-01-27T02:00:26;101479.49;;;4.08;69.29
81997;BME280;71500;50.806;8.774;2024-01-27T02:02:58;101484.48;;;4.11;69.22
81997;BME280;71500;50.806;8.774;2024-01-27T02:05:30;101488.95;;;4.13;69.17
81997;BME280;71500;50.806;8.774;2024-01-27T02:08:02;101490.62;;;4.16;69.28
81997;BME280;71500;50.806;8.774;2024-01-27T02:10:34;101483.86;;;4.18;69.26
81997;BME280;71500;50.806;8.774;2024-01-27T02:13:12;101483.88;;;4.18;69.31
81997;BME280;71500;50.806;8.774;2024-01-27T02:15:48;101480.83;;;4.19;69.38
81997;BME280;71500;50.806;8.774;2024-01-27T02:18:19;101477.66;;;4.19;69.40
81997;BME280;71500;50.806;8.774;2024-01-27T02:20:51;101474.46;;;4.16;69.30
81997;BME280;71500;50.806;8.774;2024-01-27T02:23:22;101474.25;;;4.12;69.39
81997;BME280;71500;50.806;8.774;2024-01-27T02:25:54;101470.70;;;4.08;69.49
81997;BME280;71500;50.806;8.774;2024-01-27T02:28:25;101470.52;;;4.03;69.39
81997;BME280;71500;50.806;8.774;2024-01-27T02:30:57;101476.86;;;3.98;69.56
81997;BME280;71500;50.806;8.774;2024-01-27T02:33:29;101478.42;;;3.93;69.56
81997;BME280;71500;50.806;8.774;2024-01-27T02:36:01;101480.91;;;3.88;69.66
81997;BME280;71500;50.806;8.774;2024-01-27T02:38:33;101474.57;;;3.83;69.75
81997;BME280;71500;50.806;8.774;2024-01-27T02:41:04;101471.86;;;3.80;69.92
81997;BME280;71500;50.806;8.774;2024-01-27T02:43:35;101469.34;;;3.77;69.93
81997;BME280;71500;50.806;8.774;2024-01-27T02:46:10;101466.80;;;3.74;69.95
81997;BME280;71500;50.806;8.774;2024-01-27T02:48:42;101472.41;;;3.69;69.99
81997;BME280;71500;50.806;8.774;2024-01-27T02:51:14;101472.36;;;3.66;70.14
81997;BME280;71500;50.806;8.774;2024-01-27T02:53:49;101472.70;;;3.61;70.15
81997;BME280;71500;50.806;8.774;2024-01-27T02:56:21;101473.91;;;3.56;70.27
81997;BME280;71500;50.806;8.774;2024-01-27T02:58:52;101473.68;;;3.53;70.18
81997;BME280;71500;50.806;8.774;2024-01-27T03:01:24;101473.79;;;3.50;70.06
81997;BME280;71500;50.806;8.774;2024-01-27T03:03:55;101465.11;;;3.46;70.12
81997;BME280;71500;50.806;8.774;2024-01-27T03:06:27;101468.77;;;3.48;70.35
81997;BME280;71500;50.806;8.774;2024-01-27T03:08:59;101471.19;;;3.48;70.47
81997;BME280;71500;50.806;8.774;2024-01-27T03:11:30;101480.66;;;3.49;70.40
81997;BME280;71500;50.806;8.774;2024-01-27T03:14:01;101478.58;;;3.48;70.48
81997;BME280;71500;50.806;8.774;2024-01-27T03:16:33;101479.65;;;3.47;70.53
81997;BME280;71500;50.806;8.774;2024-01-27T03:19:05;101477.33;;;3.49;70.70
81997;BME280;71500;50.806;8.774;2024-01-27T03:21:36;101474.84;;;3.49;70.74
81997;BME280;71500;50.806;8.774;2024-01-27T03:24:08;101478.51;;;3.50;70.53
81997;BME280;71500;50.806;8.774;2024-01-27T03:26:39;101482.73;;;3.50;70.53
81997;BME280;71500;50.806;8.774;2024-01-27T03:29:10;101491.33;;;3.50;70.57
81997;BME280;71500;50.806;8.774;2024-01-27T03:31:42;101491.16;;;3.50;70.47
81997;BME280;71500;50.806;8.774;2024-01-27T03:34:13;101496.69;;;3.47;70.68
81997;BME280;71500;50.806;8.774;2024-01-27T03:36:48;101494.48;;;3.45;70.74
81997;BME280;71500;50.806;8.774;2024-01-27T03:39:20;101492.30;;;3.42;70.78
81997;BME280;71500;50.806;8.774;2024-01-27T03:41:51;101497.29;;;3.40;70.73
81997;BME280;71500;50.806;8.774;2024-01-27T03:44:23;101498.27;;;3.37;70.80
81997;BME280;71500;50.806;8.774;2024-01-27T03:46:54;101502.08;;;3.33;70.76
81997;BME280;71500;50.806;8.774;2024-01-27T03:49:25;101498.52;;;3.29;70.67
81997;BME280;71500;50.806;8.774;2024-01-27T03:51:57;101497.26;;;3.25;70.66
81997;BME280;71500;50.806;8.774;2024-01-27T03:54:28;101497.59;;;3.19;70.67
81997;BME280;71500;50.806;8.774;2024-01-27T03:56:59;101493.92;;;3.13;70.75
81997;BME280;71500;50.806;8.774;2024-01-27T03:59:31;101502.53;;;3.07;71.08
81997;BME280;71500;50.806;8.774;2024-01-27T04:02:02;101504.91;;;3.04;71.34
81997;BME280;71500;50.806;8.774;2024-01-27T04:04:34;101511.71;;;2.99;71.46
81997;BME280;71500;50.806;8.774;2024-01-27T04:07:06;101513.75;;;2.96;71.55
81997;BME280;71500;50.806;8.774;2024-01-27T04:09:38;101513.70;;;2.92;71.63
81997;BME280;71500;50.806;8.774;2024-01-27T04:12:10;101515.37;;;2.89;71.76
81997;BME280;71500;50.806;8.774;2024-01-27T04:14:41;101515.59;;;2.88;71.96
81997;BME280;71500;50.806;8.774;2024-01-27T04:17:12;101512.35;;;2.91;72.00
81997;BME280;71500;50.806;8.774;2024-01-27T04:19:44;101509.61;;;2.94;72.01
81997;BME280;71500;50.806;8.774;2024-01-27T04:22:15;101511.51;;;2.95;71.92
81997;BME280;71500;50.806;8.774;2024-01-27T04:24:47;101510.44;;;2.95;71.98
81997;BME280;71500;50.806;8.774;2024-01-27T04:27:18;101509.48;;;2.98;71.92
81997;BME280;71500;50.806;8.774;2024-01-27T04:29:50;101516.02;;;3.02;72.00
81997;BME280;71500;50.806;8.774;2024-01-27T04:32:21;101510.64;;;3.06;72.04
81997;BME280;71500;50.806;8.774;2024-01-27T04:34:53;101509.02;;;3.07;71.84
81997;BME280;71500;50.806;8.774;2024-01-27T04:37:25;101510.91;;;3.08;71.92
81997;BME280;71500;50.806;8.774;2024-01-27T04:39:56;101508.08;;;3.09;71.87
81997;BME280;71500;50.806;8.774;2024-01-27T04:42:28;101505.48;;;3.08;71.98
81997;BME280;71500;50.806;8.774;2024-01-27T04:44:59;101513.12;;;3.11;71.95
81997;BME280;71500;50.806;8.774;2024-01-27T04:47:31;101520.69;;;3.10;71.94
81997;BME280;71500;50.806;8.774;2024-01-27T04:50:03;101527.38;;;3.09;71.87
81997;BME280;71500;50.806;8.774;2024-01-27T04:52:34;101529.56;;;3.07;71.67
81997;BME280;71500;50.806;8.774;2024-01-27T04:55:07;101533.34;;;3.04;71.81
81997;BME280;71500;50.806;8.774;2024-01-27T04:57:38;101539.95;;;3.00;71.96
81997;BME280;71500;50.806;8.774;2024-01-27T05:00:12;101547.06;;;2.97;72.01
81997;BME280;71500;50.806;8.774;2024-01-27T05:02:44;101548.35;;;2.95;72.11
81997;BME280;71500;50.806;8.774;2024-01-27T05:05:16;101549.84;;;2.92;72.08
81997;BME280;71500;50.806;8.774;2024-01-27T05:07:47;101547.15;;;2.88;72.15
81997;BME280;71500;50.806;8.774;2024-01-27T05:10:19;101552.55;;;2.84;72.24
81997;BME280;71500;50.806;8.774;2024-01-27T05:12:50;101556.49;;;2.81;72.36
81997;BME280;71500;50.806;8.774;2024-01-27T05:15:22;101553.28;;;2.76;72.34
81997;BME280;71500;50.806;8.774;2024-01-27T05:17:53;101551.84;;;2.72;72.42
81997;BME280;71500;50.806;8.774;2024-01-27T05:20:25;101555.41;;;2.70;72.48
81997;BME280;71500;50.806;8.774;2024-01-27T05:22:56;101550.84;;;2.65;72.56
81997;BME280;71500;50.806;8.774;2024-01-27T05:25:28;101547.64;;;2.60;72.68
81997;BME280;71500;50.806;8.774;2024-01-27T05:27:59;101552.89;;;2.60;72.54
81997;BME280;71500;50.806;8.774;2024-01-27T05:30:31;101553.08;;;2.60;72.60
81997;BME280;71500;50.806;8.774;2024-01-27T05:33:02;101554.42;;;2.61;72.69
81997;BME280;71500;50.806;8.774;2024-01-27T05:35:34;101557.36;;;2.63;72.75
81997;BME280;71500;50.806;8.774;2024-01-27T05:38:05;101560.76;;;2.67;72.82
81997;BME280;71500;50.806;8.774;2024-01-27T05:40:37;101558.36;;;2.71;72.88
81997;BME280;71500;50.806;8.774;2024-01-27T05:43:11;101560.71;;;2.75;72.83
81997;BME280;71500;50.806;8.774;2024-01-27T05:45:42;101563.95;;;2.78;72.90
81997;BME280;71500;50.806;8.774;2024-01-27T05:48:15;101569.65;;;2.81;72.76
81997;BME280;71500;50.806;8.774;2024-01-27T05:50:56;101571.36;;;2.82;72.83
81997;BME280;71500;50.806;8.774;2024-01-27T05:53:28;101573.50;;;2.81;72.53
81997;BME280;71500;50.806;8.774;2024-01-27T05:55:59;101577.55;;;2.80;72.42
81997;BME280;71500;50.806;8.774;2024-01-27T05:58:31;101572.68;;;2.79;72.47
81997;BME280;71500;50.806;8.774;2024-01-27T06:01:03;101573.30;;;2.76;72.43
81997;BME280;71500;50.806;8.774;2024-01-27T06:03:34;101577.64;;;2.72;72.52
81997;BME280;71500;50.806;8.774;2024-01-27T06:06:06;101583.16;;;2.68;72.59
81997;BME280;71500;50.806;8.774;2024-01-27T06:08:38;101580.52;;;2.63;72.73
81997;BME280;71500;50.806;8.774;2024-01-27T06:11:09;101581.99;;;2.60;72.82
81997;BME280;71500;50.806;8.774;2024-01-27T06:13:41;101580.00;;;2.56;72.83
81997;BME280;71500;50.806;8.774;2024-01-27T06:16:13;101588.88;;;2.52;72.93
81997;BME280;71500;50.806;8.774;2024-01-27T06:18:45;101591.44;;;2.48;72.93
81997;BME280;71500;50.806;8.774;2024-01-27T06:21:16;101597.64;;;2.46;72.90
81997;BME280;71500;50.806;8.774;2024-01-27T06:23:48;101594.41;;;2.42;72.93
81997;BME280;71500;50.806;8.774;2024-01-27T06:26:19;101608.36;;;2.38;72.95
81997;BME280;71500;50.806;8.774;2024-01-27T06:28:51;101609.20;;;2.34;73.04
81997;BME280;71500;50.806;8.774;2024-01-27T06:31:23;101608.05;;;2.31;73.31
81997;BME280;71500;50.806;8.774;2024-01-27T06:33:55;101612.58;;;2.31;73.34
81997;BME280;71500;50.806;8.774;2024-01-27T06:36:26;101613.61;;;2.32;73.18
81997;BME280;71500;50.806;8.774;2024-01-27T06:38:58;101616.42;;;2.32;73.23
81997;BME280;71500;50.806;8.774;2024-01-27T06:41:29;101619.40;;;2.32;73.20
81997;BME280;71500;50.806;8.774;2024-01-27T06:44:00;101619.23;;;2.33;73.24
81997;BME280;71500;50.806;8.774;2024-01-27T06:46:33;101622.70;;;2.33;73.33
81997;BME280;71500;50.806;8.774;2024-01-27T06:49:04;101624.06;;;2.35;73.35
81997;BME280;71500;50.806;8.774;2024-01-27T06:51:36;101627.90;;;2.35;73.28
81997;BME280;71500;50.806;8.774;2024-01-27T06:54:07;101630.52;;;2.36;73.32
81997;BME280;71500;50.806;8.774;2024-01-27T06:56:39;101634.18;;;2.37;73.21
81997;BME280;71500;50.806;8.774;2024-01-27T06:59:10;101628.94;;;2.36;73.30
81997;BME280;71500;50.806;8.774;2024-01-27T07:01:47;101634.56;;;2.35;73.23
81997;BME280;71500;50.806;8.774;2024-01-27T07:04:19;101629.70;;;2.33;73.33
81997;BME280;71500;50.806;8.774;2024-01-27T07:06:51;101638.84;;;2.33;73.43
81997;BME280;71500;50.806;8.774;2024-01-27T07:09:22;101642.05;;;2.30;73.40
81997;BME280;71500;50.806;8.774;2024-01-27T07:11:54;101633.89;;;2.28;73.27
81997;BME280;71500;50.806;8.774;2024-01-27T07:14:26;101632.91;;;2.25;73.41
81997;BME280;71500;50.806;8.774;2024-01-27T07:16:57;101629.30;;;2.22;73.50
81997;BME280;71500;50.806;8.774;2024-01-27T07:19:29;101628.31;;;2.20;73.56
81997;BME280;71500;50.806;8.774;2024-01-27T07:22:01;101630.64;;;2.18;73.52
81997;BME280;71500;50.806;8.774;2024-01-27T07:24:33;101633.88;;;2.14;73.67
81997;BME280;71500;50.806;8.774;2024-01-27T07:27:05;101637.64;;;2.11;73.69
81997;BME280;71500;50.806;8.774;2024-01-27T07:29:37;101642.61;;;2.09;73.73
81997;BME280;71500;50.806;8.774;2024-01-27T07:32:09;101642.15;;;2.06;73.79
81997;BME280;71500;50.806;8.774;2024-01-27T07:34:44;101643.11;;;2.02;73.98
81997;BME280;71500;50.806;8.774;2024-01-27T07:37:15;101648.05;;;2.01;74.11
81997;BME280;71500;50.806;8.774;2024-01-27T07:39:47;101648.00;;;2.04;74.15
81997;BME280;71500;50.806;8.774;2024-01-27T07:42:20;101651.40;;;2.07;74.24
81997;BME280;71500;50.806;8.774;2024-01-27T07:44:51;101657.22;;;2.12;74.34
81997;BME280;71500;50.806;8.774;2024-01-27T07:47:22;101654.10;;;2.19;74.08
81997;BME280;71500;50.806;8.774;2024-01-27T07:49:54;101658.34;;;2.24;73.91
81997;BME280;71500;50.806;8.774;2024-01-27T07:52:25;101663.11;;;2.29;73.93
81997;BME280;71500;50.806;8.774;2024-01-27T07:54:57;101666.17;;;2.33;73.91
81997;BME280;71500;50.806;8.774;2024-01-27T07:57:28;101667.98;;;2.38;74.05
81997;BME280;71500;50.806;8.774;2024-01-27T08:00:04;101673.11;;;2.43;74.07
81997;BME280;71500;50.806;8.774;2024-01-27T08:02:36;101670.07;;;2.45;74.01
81997;BME280;71500;50.806;8.774;2024-01-27T08:05:08;101667.91;;;2.48;74.08
81997;BME280;71500;50.806;8.774;2024-01-27T08:07:40;101671.71;;;2.49;73.99
81997;BME280;71500;50.806;8.774;2024-01-27T08:10:12;101680.62;;;2.51;73.96
81997;BME280;71500;50.806;8.774;2024-01-27T08:12:43;101686.05;;;2.51;73.99
81997;BME280;71500;50.806;8.774;2024-01-27T08:15:15;101685.48;;;2.52;73.90
81997;BME280;71500;50.806;8.774;2024-01-27T08:17:46;101680.06;;;2.52;73.88
81997;BME280;71500;50.806;8.774;2024-01-27T08:20:18;101679.90;;;2.52;73.89
81997;BME280;71500;50.806;8.774;2024-01-27T08:22:49;101677.13;;;2.50;73.90
81997;BME280;71500;50.806;8.774;2024-01-27T08:25:21;101674.54;;;2.49;74.14
81997;BME280;71500;50.806;8.774;2024-01-27T08:27:53;101685.08;;;2.48;74.08
81997;BME280;71500;50.806;8.774;2024-01-27T08:30:24;101679.90;;;2.45;74.08
81997;BME280;71500;50.806;8.774;2024-01-27T08:32:56;101683.63;;;2.43;74.18
81997;BME280;71500;50.806;8.774;2024-01-27T08:35:27;101686.49;;;2.41;74.22
81997;BME280;71500;50.806;8.774;2024-01-27T08:37:59;101689.19;;;2.38;74.34
81997;BME280;71500;50.806;8.774;2024-01-27T08:40:30;101700.75;;;2.39;74.51
81997;BME280;71500;50.806;8.774;2024-01-27T08:43:01;101707.46;;;2.43;74.57
81997;BME280;71500;50.806;8.774;2024-01-27T08:45:33;101699.48;;;2.47;74.61
81997;BME280;71500;50.806;8.774;2024-01-27T08:48:06;101700.05;;;2.52;74.66
81997;BME280;71500;50.806;8.774;2024-01-27T08:50:37;101704.99;;;2.58;74.51
81997;BME280;71500;50.806;8.774;2024-01-27T08:53:09;101706.43;;;2.63;74.45
81997;BME280;71500;50.806;8.774;2024-01-27T08:55:40;101715.33;;;2.71;74.43
81997;BME280;71500;50.806;8.774;2024-01-27T08:58:12;101713.61;;;2.76;74.28
81997;BME280;71500;50.806;8.774;2024-01-27T09:00:44;101709.12;;;2.80;74.26
81997;BME280;71500;50.806;8.774;2024-01-27T09:03:15;101713.38;;;2.85;74.25
81997;BME280;71500;50.806;8.774;2024-01-27T09:05:47;101711.01;;;2.88;74.21
81997;BME280;71500;50.806;8.774;2024-01-27T09:08:19;101710.98;;;2.90;74.21
81997;BME280;71500;50.806;8.774;2024-01-27T09:10:50;101711.98;;;2.91;74.20
81997;BME280;71500;50.806;8.774;2024-01-27T09:13:21;101717.92;;;2.92;74.22
81997;BME280;71500;50.806;8.774;2024-01-27T09:15:53;101724.55;;;2.93;74.35
81997;BME280;71500;50.806;8.774;2024-01-27T09:18:24;101724.88;;;2.94;74.36
81997;BME280;71500;50.806;8.774;2024-01-27T09:20:57;101727.13;;;2.96;74.56
81997;BME280;71500;50.806;8.774;2024-01-27T09:23:29;101727.60;;;2.97;74.66
81997;BME280;71500;50.806;8.774;2024-01-27T09:26:00;101726.27;;;3.01;74.64
81997;BME280;71500;50.806;8.774;2024-01-27T09:28:32;101726.02;;;3.04;74.63
81997;BME280;71500;50.806;8.774;2024-01-27T09:31:03;101718.91;;;3.07;74.64
81997;BME280;71500;50.806;8.774;2024-01-27T09:33:35;101717.95;;;3.10;74.60
81997;BME280;71500;50.806;8.774;2024-01-27T09:36:07;101720.50;;;3.13;74.46
81997;BME280;71500;50.806;8.774;2024-01-27T09:38:39;101715.87;;;3.15;74.36
81997;BME280;71500;50.806;8.774;2024-01-27T09:41:12;101717.41;;;3.17;74.31
81997;BME280;71500;50.806;8.774;2024-01-27T09:43:45;101723.34;;;3.25;74.23
81997;BME280;71500;50.806;8.774;2024-01-27T09:46:19;101722.09;;;3.31;74.24
81997;BME280;71500;50.806;8.774;2024-01-27T09:48:50;101733.48;;;3.39;74.12
81997;BME280;71500;50.806;8.774;2024-01-27T09:51:24;101735.34;;;3.47;74.00
81997;BME280;71500;50.806;8.774;2024-01-27T09:53:56;101740.73;;;3.55;73.75
81997;BME280;71500;50.806;8.774;2024-01-27T09:56:27;101741.73;;;3.62;73.64
81997;BME280;71500;50.806;8.774;2024-01-27T09:58:59;101739.79;;;3.69;73.59
81997;BME280;71500;50.806;8.774;2024-01-27T10:01:33;101733.64;;;3.74;73.41
81997;BME280;71500;50.806;8.774;2024-01-27T10:04:06;101730.34;;;3.79;73.34
81997;BME280;71500;50.806;8.774;2024-01-27T10:06:39;101736.34;;;3.84;73.16
81997;BME280;71500;50.806;8.774;2024-01-27T10:09:11;101733.06;;;3.87;73.03
81997;BME280;71500;50.806;8.774;2024-01-27T10:11:46;101728.08;;;3.90;72.95
81997;BME280;71500;50.806;8.774;2024-01-27T10:14:18;101722.41;;;3.91;72.96
81997;BME280;71500;50.806;8.774;2024-01-27T10:16:49;101724.61;;;3.93;72.93
81997;BME280;71500;50.806;8.774;2024-01-27T10:19:21;101727.07;;;3.94;72.79
81997;BME280;71500;50.806;8.774;2024-01-27T10:22:01;101730.21;;;3.94;72.79
81997;BME280;71500;50.806;8.774;2024-01-27T10:24:33;101738.48;;;3.94;72.74
81997;BME280;71500;50.806;8.774;2024-01-27T10:27:06;101736.92;;;3.94;72.72
81997;BME280;71500;50.806;8.774;2024-01-27T10:29:37;101730.95;;;3.94;72.80
81997;BME280;71500;50.806;8.774;2024-01-27T10:32:13;101727.40;;;3.94;72.78
81997;BME280;71500;50.806;8.774;2024-01-27T10:34:44;101726.98;;;3.96;72.86
81997;BME280;71500;50.806;8.774;2024-01-27T10:37:16;101730.60;;;3.99;73.13
81997;BME280;71500;50.806;8.774;2024-01-27T10:40:02;101728.87;;;4.04;73.12
81997;BME280;71500;50.806;8.774;2024-01-27T10:42:36;101724.19;;;4.13;72.97
81997;BME280;71500;50.806;8.774;2024-01-27T10:45:09;101713.36;;;4.21;72.99
81997;BME280;71500;50.806;8.774;2024-01-27T10:47:42;101703.71;;;4.32;72.98
81997;BME280;71500;50.806;8.774;2024-01-27T10:50:13;101696.13;;;4.42;72.88
81997;BME280;71500;50.806;8.774;2024-01-27T10:52:45;101685.95;;;4.52;72.63
81997;BME280;71500;50.806;8.774;2024-01-27T10:55:18;101690.50;;;4.63;72.29
81997;BME280;71500;50.806;8.774;2024-01-27T10:57:51;101688.07;;;4.72;71.95
81997;BME280;71500;50.806;8.774;2024-01-27T11:00:25;101680.95;;;4.79;71.83
81997;BME280;71500;50.806;8.774;2024-01-27T11:02:59;101681.96;;;4.86;71.61
81997;BME280;71500;50.806;8.774;2024-01-27T11:05:36;101683.16;;;4.91;71.77
81997;BME280;71500;50.806;8.774;2024-01-27T11:08:10;101687.02;;;4.97;71.60
81997;BME280;71500;50.806;8.774;2024-01-27T11:10:44;101689.86;;;5.01;71.51
81997;BME280;71500;50.806;8.774;2024-01-27T11:13:16;101695.55;;;5.04;71.42
81997;BME280;71500;50.806;8.774;2024-01-27T11:15:53;101691.70;;;5.08;71.32
81997;BME280;71500;50.806;8.774;2024-01-27T11:18:25;101685.26;;;5.11;70.92
81997;BME280;71500;50.806;8.774;2024-01-27T11:20:58;101685.00;;;5.13;70.72
81997;BME280;71500;50.806;8.774;2024-01-27T11:23:36;101690.39;;;5.15;70.82
81997;BME280;71500;50.806;8.774;2024-01-27T11:26:08;101692.05;;;5.18;70.94
81997;BME280;71500;50.806;8.774;2024-01-27T11:28:40;101688.81;;;5.20;70.60
81997;BME280;71500;50.806;8.774;2024-01-27T11:31:12;101690.80;;;5.23;70.40
81997;BME280;71500;50.806;8.774;2024-01-27T11:33:44;101686.67;;;5.25;70.49
81997;BME280;71500;50.806;8.774;2024-01-27T11:36:21;101688.48;;;5.29;70.71
81997;BME280;71500;50.806;8.774;2024-01-27T11:38:54;101684.51;;;5.31;70.27
81997;BME280;71500;50.806;8.774;2024-01-27T11:41:28;101681.94;;;5.34;70.58
81997;BME280;71500;50.806;8.774;2024-01-27T11:44:00;101674.61;;;5.37;70.67
81997;BME280;71500;50.806;8.774;2024-01-27T11:46:32;101672.73;;;5.40;70.56
81997;BME280;71500;50.806;8.774;2024-01-27T11:49:04;101666.46;;;5.43;70.63
81997;BME280;71500;50.806;8.774;2024-01-27T11:51:36;101663.30;;;5.48;70.72
81997;BME280;71500;50.806;8.774;2024-01-27T11:54:07;101661.42;;;5.50;70.69
81997;BME280;71500;50.806;8.774;2024-01-27T11:56:39;101655.99;;;5.54;70.42
81997;BME280;71500;50.806;8.774;2024-01-27T11:59:11;101665.66;;;5.59;70.72
81997;BME280;71500;50.806;8.774;2024-01-27T12:01:42;101662.00;;;5.62;70.26
81997;BME280;71500;50.806;8.774;2024-01-27T12:04:14;101660.27;;;5.66;70.16
81997;BME280;71500;50.806;8.774;2024-01-27T12:06:46;101663.06;;;5.71;69.95
81997;BME280;71500;50.806;8.774;2024-01-27T12:09:17;101653.16;;;5.76;69.66
81997;BME280;71500;50.806;8.774;2024-01-27T12:11:50;101662.63;;;5.87;69.28
81997;BME280;71500;50.806;8.774;2024-01-27T12:14:21;101655.34;;;5.93;69.04
81997;BME280;71500;50.806;8.774;2024-01-27T12:16:53;101654.40;;;5.99;69.03
81997;BME280;71500;50.806;8.774;2024-01-27T12:19:24;101649.05;;;6.05;68.89
81997;BME280;71500;50.806;8.774;2024-01-27T12:21:56;101644.93;;;6.10;69.09
81997;BME280;71500;50.806;8.774;2024-01-27T12:24:28;101645.02;;;6.17;68.62
81997;BME280;71500;50.806;8.774;2024-01-27T12:27:00;101645.13;;;6.23;68.56
81997;BME280;71500;50.806;8.774;2024-01-27T12:29:31;101645.45;;;6.27;68.33
81997;BME280;71500;50.806;8.774;2024-01-27T12:32:05;101639.14;;;6.31;68.14
81997;BME280;71500;50.806;8.774;2024-01-27T12:34:42;101632.48;;;6.34;68.04
81997;BME280;71500;50.806;8.774;2024-01-27T12:37:15;101640.80;;;6.37;68.53
81997;BME280;71500;50.806;8.774;2024-01-27T12:39:47;101640.71;;;6.40;68.11
81997;BME280;71500;50.806;8.774;2024-01-27T12:42:21;101643.42;;;6.42;67.93
81997;BME280;71500;50.806;8.774;2024-01-27T12:44:52;101644.41;;;6.44;67.71
81997;BME280;71500;50.806;8.774;2024-01-27T12:47:24;101643.96;;;6.46;67.38
81997;BME280;71500;50.806;8.774;2024-01-27T12:49:56;101639.80;;;6.48;67.26
81997;BME280;71500;50.806;8.774;2024-01-27T12:52:27;101635.88;;;6.50;66.94
81997;BME280;71500;50.806;8.774;2024-01-27T12:54:59;101637.30;;;6.53;66.75
81997;BME280;71500;50.806;8.774;2024-01-27T12:57:30;101641.00;;;6.53;66.81
81997;BME280;71500;50.806;8.774;2024-01-27T13:00:02;101638.13;;;6.54;66.95
81997;BME280;71500;50.806;8.774;2024-01-27T13:02:40;101640.05;;;6.55;67.01
81997;BME280;71500;50.806;8.774;2024-01-27T13:05:13;101640.52;;;6.56;66.49
81997;BME280;71500;50.806;8.774;2024-01-27T13:07:45;101633.92;;;6.58;66.21
81997;BME280;71500;50.806;8.774;2024-01-27T13:10:16;101630.69;;;6.59;66.01
81997;BME280;71500;50.806;8.774;2024-01-27T13:12:49;101625.81;;;6.61;65.81
81997;BME280;71500;50.806;8.774;2024-01-27T13:15:20;101623.26;;;6.64;65.75
81997;BME280;71500;50.806;8.774;2024-01-27T13:17:52;101617.88;;;6.65;65.74
81997;BME280;71500;50.806;8.774;2024-01-27T13:20:23;101614.64;;;6.67;65.74
81997;BME280;71500;50.806;8.774;2024-01-27T13:22:55;101609.15;;;6.67;65.00
81997;BME280;71500;50.806;8.774;2024-01-27T13:25:26;101609.47;;;6.68;65.06